Airfield :
LOGIN :

Register | Disclaimer

   EN    FR    IT 

 










Legend :    VFR   Marginal VFR   IFR   Intensive IFR   Very Intensive IFR
Visi :
Ceiling :
>= 8 km
>= 3000ft
5 to 8 km
1000 to 3000 ft
1500m to 5 km
500 to 1000 ft
800 to 1500m
200 to 500 ft
< 800m
< 200 ft
Symbols :   Thunderstorms  Fog  Heavy snow  Heavy precipitations  Wind > 20 kt
SIGMETs :     Misc.  Thunderstorms  Icing  Turbulence  Mountain Waves  Volcanic Ashes






- Airport Elevation : 33 ft
- IATA code : MHZ


EGUN - RAF Mildenhall

CURRENT METAR :
  • 241055Z 21003KT 9999 FEW020 BKN250 06/03 A2938 RMK AO2A SLP952 T00580028 $

EXPIRED METARs :
  • 240955Z 25005KT 9999 FEW020 SCT250 04/02 A2936 RMK AO2A SLP946 T00370017 $
  • 240855Z 21004KT 8000 BR FEW080 03/02 A2935 RMK AO2A SLP942 T00280015 52018 $
  • 240755Z 19003KT 6000 BR FEW050 00/M01 A2933 RMK AO2A SLP935 T00011006 $
  • 240655Z 18004KT 6000 BR FEW026 M00/M01 A2931 RMK AO2A SLP929 T10021011 $

TAF AMD TAF EGUN
Valid from the 24 at 10:00 until the 25 at 10:00 UTC


241014Z 2410/2510 23004KT 9999 SCT018 SCT250 QNH2937INS
BECMG 2411/2413 20007KT 9999 FEW025 BKN250 QNH2939INS
BECMG 2422/2424 16005KT 5000 BR MIFG FEW007 SCT050 QNH2942INS
BECMG 2501/2503 15004KT 0600 FZFG BKN002 QNH2942INS
BECMG 2507/2509 13008KT 8000 BR SCT002 BKN012 600252 QNH2943INS TX08/2415Z TNM01/2504Z



MET'MAP, your aeronautical weather chart ! - Copyright ORBIFLY December 2007 - Disclaimer

ORBIFLY MET'MAP TEAM :

Programming & Development : Alexandra Zaïnal
Original concept : Baudouin d'Aumeries
Technical & hardware support : Manuel Goepfert
Assistance : Marc-Olivier Méhu




SOURCES & CREDITS :

   NOAA